createdAt,value
2018-11-14T00:01:09.406Z,4
2018-11-14T00:06:11.858Z,4
2018-11-14T00:11:14.291Z,4
2018-11-14T00:16:16.729Z,4
2018-11-14T00:21:19.178Z,4
2018-11-14T00:26:21.602Z,4
2018-11-14T00:31:24.058Z,4
2018-11-14T00:36:26.533Z,5
2018-11-14T00:41:28.924Z,4
2018-11-14T00:46:31.356Z,5
2018-11-14T00:51:33.813Z,4
2018-11-14T00:56:36.248Z,4
2018-11-14T01:01:38.786Z,4
2018-11-14T01:06:41.132Z,4
2018-11-14T01:11:43.620Z,4
2018-11-14T01:16:45.998Z,4
2018-11-14T01:21:48.501Z,4
2018-11-14T01:26:50.887Z,4
2018-11-14T01:31:53.316Z,4
2018-11-14T01:36:55.770Z,4
2018-11-14T01:41:58.236Z,4
2018-11-14T01:47:00.645Z,3
2018-11-14T01:52:03.093Z,4
2018-11-14T01:57:05.516Z,4
2018-11-14T02:02:07.967Z,4
2018-11-14T02:07:10.434Z,4
2018-11-14T02:12:12.842Z,4
2018-11-14T02:17:15.309Z,5
2018-11-14T02:22:17.735Z,4
2018-11-14T02:27:20.178Z,4
2018-11-14T02:32:22.627Z,4
2018-11-14T02:37:25.110Z,4
2018-11-14T02:42:27.482Z,5
2018-11-14T02:47:29.940Z,4
2018-11-14T02:52:32.388Z,4
2018-11-14T02:57:34.815Z,4
2018-11-14T03:02:37.274Z,4
2018-11-14T03:07:39.735Z,4
2018-11-14T03:12:42.203Z,4
2018-11-14T03:17:44.614Z,4
2018-11-14T03:22:47.064Z,4
2018-11-14T03:27:49.510Z,3
2018-11-14T03:32:51.956Z,4
2018-11-14T03:37:54.327Z,4
2018-11-14T03:42:56.767Z,4
2018-11-14T03:47:59.216Z,4
2018-11-14T03:53:01.642Z,4
2018-11-14T03:58:04.117Z,3
2018-11-14T04:03:06.549Z,4
2018-11-14T04:08:08.977Z,4
2018-11-14T04:13:11.481Z,3
2018-11-14T04:18:13.858Z,4
2018-11-14T04:23:16.284Z,4
2018-11-14T04:28:18.761Z,4
2018-11-14T04:33:21.167Z,3
2018-11-14T04:38:23.611Z,3
2018-11-14T04:43:26.073Z,4
2018-11-14T04:48:28.488Z,4
2018-11-14T04:53:30.959Z,4
2018-11-14T04:58:33.365Z,3
2018-11-14T05:03:35.831Z,4
2018-11-14T05:08:38.253Z,4
2018-11-14T05:13:40.734Z,3
2018-11-14T05:18:43.136Z,4
2018-11-14T05:23:45.578Z,3
2018-11-14T05:28:48.010Z,3
2018-11-14T05:33:50.448Z,4
2018-11-14T05:38:53.042Z,3
2018-11-14T05:43:55.320Z,4
2018-11-14T05:48:57.778Z,4
2018-11-14T05:54:00.239Z,4
2018-11-14T05:59:02.885Z,4
2018-11-14T06:04:05.089Z,4
2018-11-14T06:09:07.539Z,4
2018-11-14T06:14:09.980Z,5
2018-11-14T06:19:12.424Z,5
2018-11-14T06:24:14.871Z,4
2018-11-14T06:29:17.308Z,4
2018-11-14T06:34:19.765Z,3
2018-11-14T06:39:22.210Z,4
2018-11-14T06:44:24.656Z,4
2018-11-14T06:49:27.205Z,4
2018-11-14T06:54:29.551Z,4
2018-11-14T06:59:32.107Z,4
2018-11-14T07:04:34.447Z,7
2018-11-14T07:09:36.899Z,10
2018-11-14T07:14:39.332Z,17
2018-11-14T07:19:41.835Z,12
2018-11-14T07:24:44.383Z,11
2018-11-14T07:29:46.671Z,11
2018-11-14T07:34:49.124Z,10
2018-11-14T07:39:51.566Z,20
2018-11-14T07:44:54.004Z,8
2018-11-14T07:49:56.499Z,7
2018-11-14T07:54:59.260Z,7
2018-11-14T08:00:01.369Z,7
2018-11-14T08:05:03.782Z,7
2018-11-14T08:10:06.259Z,10
2018-11-14T08:15:08.678Z,5
2018-11-14T08:20:11.115Z,5
2018-11-14T08:25:13.769Z,4
2018-11-14T08:30:16.022Z,3
2018-11-14T08:35:18.431Z,4
2018-11-14T08:40:20.880Z,6
2018-11-14T08:45:23.308Z,3
2018-11-14T08:50:25.800Z,4
2018-11-14T08:55:28.324Z,4
2018-11-14T09:00:30.639Z,3
2018-11-14T09:05:33.069Z,4
2018-11-14T09:10:35.534Z,4
2018-11-14T09:15:37.950Z,3
2018-11-14T09:20:40.485Z,3
2018-11-14T09:25:42.830Z,4
2018-11-14T09:30:45.327Z,2
2018-11-14T09:35:47.710Z,2
2018-11-14T09:40:50.325Z,2
2018-11-14T09:45:52.592Z,2
2018-11-14T09:50:55.075Z,2
2018-11-14T09:55:57.486Z,2
2018-11-14T10:01:00.163Z,2
2018-11-14T10:06:02.392Z,4
2018-11-14T10:11:04.796Z,2
2018-11-14T10:16:07.249Z,2
2018-11-14T10:21:09.740Z,2
2018-11-14T10:26:12.187Z,2
2018-11-14T10:31:14.544Z,6
2018-11-14T10:36:16.989Z,2
2018-11-14T10:41:19.452Z,2
2018-11-14T10:46:21.878Z,2
2018-11-14T10:51:24.315Z,2
2018-11-14T10:56:26.773Z,2
2018-11-14T11:01:29.205Z,2
2018-11-14T11:06:31.631Z,2
2018-11-14T11:11:34.094Z,2
2018-11-14T11:16:36.624Z,2
2018-11-14T11:21:38.947Z,2
2018-11-14T11:26:41.409Z,2
2018-11-14T11:31:43.920Z,2
2018-11-14T11:36:46.378Z,1
2018-11-14T11:41:48.732Z,1
2018-11-14T11:46:51.177Z,1
2018-11-14T11:51:53.609Z,1
2018-11-14T11:56:56.034Z,1
2018-11-14T12:01:58.530Z,2
2018-11-14T12:07:00.922Z,1
2018-11-14T12:12:03.418Z,1
2018-11-14T12:17:05.838Z,1
2018-11-14T12:22:08.250Z,2
2018-11-14T12:27:10.738Z,1
2018-11-14T12:32:13.137Z,1
2018-11-14T12:37:15.631Z,1
2018-11-14T12:42:18.013Z,1
2018-11-14T12:47:20.447Z,1
2018-11-14T12:52:22.907Z,1
2018-11-14T13:02:27.797Z,1
2018-11-14T13:07:30.225Z,1
2018-11-14T13:12:32.675Z,1
2018-11-14T13:17:35.166Z,2
2018-11-14T13:22:37.552Z,1
2018-11-14T13:27:40.005Z,2
2018-11-14T13:32:42.484Z,1
2018-11-14T13:37:44.861Z,1
2018-11-14T13:42:47.303Z,1
2018-11-14T13:47:49.751Z,1
2018-11-14T13:52:52.201Z,1
2018-11-14T13:57:54.630Z,1
2018-11-14T14:02:57.131Z,1
2018-11-14T14:07:59.589Z,1
2018-11-14T14:13:01.953Z,1
2018-11-14T14:18:04.446Z,1
2018-11-14T14:23:06.848Z,1
2018-11-14T14:28:09.341Z,1
2018-11-14T14:33:11.977Z,1
2018-11-14T14:38:14.264Z,1
2018-11-14T14:43:16.587Z,1
2018-11-14T14:48:19.044Z,1
2018-11-14T14:53:21.470Z,1
2018-11-14T14:58:23.921Z,1
2018-11-14T15:03:26.462Z,1
2018-11-14T15:08:28.821Z,1
2018-11-14T15:13:31.234Z,1
2018-11-14T15:18:33.689Z,1
2018-11-14T15:23:36.118Z,2
2018-11-14T15:28:38.603Z,2
2018-11-14T15:33:41.006Z,2
2018-11-14T15:38:43.490Z,2
2018-11-14T15:43:45.884Z,2
2018-11-14T15:48:48.340Z,1
2018-11-14T15:53:50.773Z,2
2018-11-14T15:58:53.202Z,5
2018-11-14T16:03:55.645Z,2
2018-11-14T16:08:58.083Z,1
2018-11-14T16:14:00.522Z,2
2018-11-14T16:19:02.967Z,2
2018-11-14T16:24:05.475Z,2
2018-11-14T16:29:07.846Z,3
2018-11-14T16:34:10.302Z,2
2018-11-14T16:39:12.725Z,3
2018-11-14T16:44:15.198Z,3
2018-11-14T16:49:17.647Z,2
2018-11-14T16:54:20.058Z,3
2018-11-14T16:59:22.509Z,3
2018-11-14T17:04:24.969Z,3
2018-11-14T17:09:27.403Z,2
2018-11-14T17:14:29.944Z,3
2018-11-14T17:19:32.305Z,4
2018-11-14T17:24:34.858Z,5
2018-11-14T17:29:37.190Z,12
2018-11-14T17:34:39.669Z,36
2018-11-14T17:44:44.509Z,26
